createdAt,value
2023-05-10T00:02:11.820Z,31.45
2023-05-10T00:05:12.684Z,31.33
2023-05-10T00:08:13.710Z,31.39
2023-05-10T00:11:14.704Z,31.27
2023-05-10T00:14:15.725Z,31.28
2023-05-10T00:17:16.675Z,31.27
2023-05-10T00:20:18.163Z,31.42
2023-05-10T00:23:18.673Z,31.26
2023-05-10T00:26:19.737Z,31.33
2023-05-10T00:29:22.675Z,31.43
2023-05-10T00:32:24.003Z,31.30
2023-05-10T00:35:24.679Z,31.19
2023-05-10T00:38:25.722Z,31.13
2023-05-10T00:41:26.656Z,31.11
2023-05-10T00:44:28.716Z,31.27
2023-05-10T00:47:29.720Z,31.22
2023-05-10T00:50:30.766Z,31.14
2023-05-10T00:53:31.671Z,31.05
2023-05-10T00:56:32.751Z,31.09
2023-05-10T00:59:33.657Z,31.19
2023-05-10T01:02:34.788Z,31.20
2023-05-10T01:05:35.700Z,31.11
2023-05-10T01:08:36.726Z,31.25
2023-05-10T01:11:37.687Z,31.24
2023-05-10T01:14:39.705Z,31.21
2023-05-10T01:17:40.709Z,31.23
2023-05-10T01:20:54.707Z,31.08
2023-05-10T01:23:55.684Z,31.23
2023-05-10T01:27:01.688Z,31.17
2023-05-10T01:30:22.333Z,31.14
2023-05-10T01:33:33.772Z,31.26
2023-05-10T01:36:45.678Z,31.12
2023-05-10T01:39:51.702Z,31.17
2023-05-10T01:42:57.882Z,31.22
2023-05-10T01:46:05.746Z,31.12
2023-05-10T01:49:08.694Z,31.11
2023-05-10T01:52:13.718Z,31.19
2023-05-10T01:55:19.697Z,31.22
2023-05-10T01:58:22.726Z,31.17
2023-05-10T02:01:24.656Z,31.19
2023-05-10T02:04:27.706Z,31.24
2023-05-10T02:07:28.675Z,31.11
2023-05-10T02:10:29.712Z,31.03
2023-05-10T02:13:31.726Z,31.30
2023-05-10T02:16:34.768Z,31.13
2023-05-10T02:19:36.656Z,31.06
2023-05-10T02:22:38.704Z,31.19
2023-05-10T02:25:39.688Z,31.16
2023-05-10T02:28:41.708Z,31.07
2023-05-10T02:31:42.658Z,31.07
2023-05-10T02:34:44.859Z,31.21
2023-05-10T02:37:45.657Z,30.96
2023-05-10T02:40:46.706Z,30.96
2023-05-10T02:43:47.655Z,31.04
2023-05-10T02:46:48.705Z,31.06
2023-05-10T02:49:49.664Z,31.15
2023-05-10T02:53:01.728Z,30.94
2023-05-10T02:56:05.667Z,31.09
2023-05-10T02:59:06.700Z,31.15
2023-05-10T03:02:07.679Z,31.15
2023-05-10T03:05:08.716Z,31.05
2023-05-10T03:08:11.678Z,31.01
2023-05-10T03:11:21.693Z,31.07
2023-05-10T03:14:31.652Z,31.13
2023-05-10T03:17:35.780Z,31.04
2023-05-10T03:20:40.701Z,30.93
2023-05-10T03:23:55.755Z,31.07
2023-05-10T03:26:57.697Z,31.06
2023-05-10T03:29:58.686Z,30.99
2023-05-10T03:33:01.734Z,30.88
2023-05-10T03:36:06.734Z,31.12
2023-05-10T03:39:07.670Z,31.05
2023-05-10T03:42:08.687Z,30.82
2023-05-10T03:45:09.654Z,30.97
2023-05-10T03:48:10.750Z,30.92
2023-05-10T03:51:11.621Z,31.00
2023-05-10T03:54:12.698Z,31.05
2023-05-10T03:57:13.669Z,31.22
2023-05-10T04:00:14.880Z,30.85
2023-05-10T04:03:18.772Z,31.16
2023-05-10T04:06:19.799Z,31.03
2023-05-10T04:09:20.656Z,30.96
2023-05-10T04:12:21.683Z,31.09
2023-05-10T04:15:22.658Z,31.10
2023-05-10T04:18:23.738Z,30.96
2023-05-10T04:21:27.632Z,30.91
2023-05-10T04:24:28.698Z,31.09
2023-05-10T04:27:29.688Z,31.10
2023-05-10T04:30:30.745Z,31.20
2023-05-10T04:33:31.635Z,31.24
2023-05-10T04:36:32.999Z,31.14
2023-05-10T04:39:33.673Z,31.17
2023-05-10T04:42:34.703Z,31.16
2023-05-10T04:45:35.661Z,31.19
2023-05-10T04:48:36.717Z,31.59
2023-05-10T04:51:37.645Z,31.32
2023-05-10T04:54:38.680Z,31.51
2023-05-10T04:57:39.662Z,31.30
2023-05-10T05:00:40.687Z,31.24
2023-05-10T05:03:41.752Z,31.36
2023-05-10T05:06:42.703Z,31.34
2023-05-10T05:09:43.645Z,31.62
2023-05-10T05:12:44.744Z,31.46
2023-05-10T05:15:45.658Z,31.13
2023-05-10T05:18:46.698Z,31.55
2023-05-10T05:21:47.650Z,31.37
2023-05-10T05:24:52.684Z,31.44
2023-05-10T05:27:53.630Z,31.38
2023-05-10T05:30:54.728Z,31.36
2023-05-10T05:33:55.651Z,31.34
2023-05-10T05:36:56.833Z,31.32
2023-05-10T05:39:57.646Z,31.50
2023-05-10T05:42:58.682Z,31.41
2023-05-10T05:45:59.692Z,31.35
2023-05-10T05:49:00.695Z,31.41
2023-05-10T05:52:01.629Z,31.11
2023-05-10T05:55:02.649Z,31.56
2023-05-10T05:58:03.630Z,31.76
2023-05-10T06:01:04.647Z,31.48
2023-05-10T06:04:05.706Z,31.35
2023-05-10T06:07:06.663Z,31.32
2023-05-10T06:10:07.643Z,31.53
2023-05-10T06:13:08.833Z,31.57
2023-05-10T06:16:09.648Z,31.60
2023-05-10T06:19:10.670Z,31.55
2023-05-10T06:22:11.646Z,31.35
2023-05-10T06:25:12.695Z,31.44
2023-05-10T06:28:13.785Z,31.31
2023-05-10T06:31:14.736Z,31.46
2023-05-10T06:34:15.602Z,31.36
2023-05-10T06:37:16.882Z,31.45
2023-05-10T06:40:17.660Z,31.66
2023-05-10T06:43:18.693Z,31.52
2023-05-10T06:46:19.725Z,31.52
2023-05-10T06:49:20.691Z,31.33
2023-05-10T06:52:21.645Z,31.27
2023-05-10T06:55:22.696Z,31.56
2023-05-10T06:58:23.644Z,31.39
2023-05-10T07:01:24.769Z,31.60
2023-05-10T07:04:25.694Z,32.00
2023-05-10T07:07:26.672Z,31.71
2023-05-10T07:10:27.634Z,31.92
2023-05-10T07:13:28.783Z,31.90
2023-05-10T07:16:29.687Z,31.94
2023-05-10T07:19:30.643Z,31.94
2023-05-10T07:22:31.630Z,31.95
2023-05-10T07:25:32.655Z,31.74
2023-05-10T07:28:33.627Z,31.42
2023-05-10T07:31:34.657Z,31.53
2023-05-10T07:34:35.642Z,31.89
2023-05-10T07:37:36.851Z,31.72
2023-05-10T07:40:37.639Z,31.91
2023-05-10T07:43:38.665Z,31.39
2023-05-10T07:46:39.676Z,31.65
2023-05-10T07:49:40.704Z,32.01
2023-05-10T07:52:41.593Z,32.16
2023-05-10T07:55:42.651Z,31.65
2023-05-10T07:58:43.660Z,31.90
2023-05-10T08:01:45.720Z,32.03
2023-05-10T08:04:46.708Z,31.65
2023-05-10T08:07:47.655Z,31.87
2023-05-10T08:10:48.595Z,32.19
2023-05-10T08:13:49.718Z,31.55
2023-05-10T08:16:50.624Z,31.74
2023-05-10T08:19:51.674Z,31.72
2023-05-10T08:22:52.600Z,31.32
2023-05-10T08:25:53.661Z,31.39
2023-05-10T08:28:54.592Z,31.63
2023-05-10T08:31:55.623Z,30.94
2023-05-10T08:34:56.596Z,31.05
2023-05-10T08:37:57.768Z,31.38
2023-05-10T08:41:02.608Z,31.36
2023-05-10T08:44:04.652Z,31.35
2023-05-10T08:47:07.824Z,31.64
2023-05-10T08:50:08.735Z,31.50
2023-05-10T08:53:11.701Z,31.06
2023-05-10T08:56:12.698Z,30.72
2023-05-10T08:59:13.623Z,31.13
2023-05-10T09:02:16.667Z,31.88
2023-05-10T09:05:18.940Z,30.95
2023-05-10T09:08:20.637Z,31.30
2023-05-10T09:11:21.626Z,31.36
2023-05-10T09:14:22.654Z,31.50
2023-05-10T09:17:24.680Z,31.64
2023-05-10T09:20:25.643Z,31.64
2023-05-10T09:23:26.584Z,31.47
2023-05-10T09:26:27.679Z,31.23
2023-05-10T09:29:28.818Z,30.86
2023-05-10T09:32:29.695Z,31.01
2023-05-10T09:35:31.592Z,30.87
2023-05-10T09:38:32.843Z,31.22
2023-05-10T09:41:33.592Z,31.41
2023-05-10T09:44:34.716Z,31.52
2023-05-10T09:47:35.631Z,31.42
2023-05-10T09:50:36.644Z,31.54
2023-05-10T09:53:37.599Z,31.99
2023-05-10T09:56:47.663Z,31.50
2023-05-10T09:59:48.609Z,31.97
2023-05-10T10:02:49.727Z,31.82
2023-05-10T10:05:50.607Z,31.85
2023-05-10T10:08:51.632Z,31.53
2023-05-10T10:11:52.639Z,31.82
2023-05-10T10:14:53.668Z,31.78
2023-05-10T10:17:54.659Z,31.48
2023-05-10T10:20:55.632Z,30.94
2023-05-10T10:23:56.619Z,30.51
2023-05-10T10:26:58.615Z,30.73
2023-05-10T10:30:06.598Z,30.99
2023-05-10T10:33:28.752Z,30.46
2023-05-10T10:36:29.641Z,30.35
2023-05-10T10:39:30.922Z,30.70
2023-05-10T10:42:51.605Z,30.45
2023-05-10T10:45:53.693Z,29.98
2023-05-10T10:49:04.679Z,30.86
2023-05-10T10:52:28.646Z,30.18
2023-05-10T10:55:32.598Z,30.23
2023-05-10T10:58:53.689Z,30.98
2023-05-10T11:01:55.582Z,30.83
2023-05-10T11:04:57.634Z,31.38
2023-05-10T11:08:11.580Z,31.34
2023-05-10T11:11:17.650Z,31.88
2023-05-10T11:14:19.555Z,31.93
2023-05-10T11:17:40.668Z,31.71
2023-05-10T11:20:54.553Z,31.39
2023-05-10T11:23:58.678Z,31.59
2023-05-10T11:26:59.573Z,31.65
2023-05-10T11:30:00.604Z,31.77
2023-05-10T11:33:01.620Z,31.62
2023-05-10T11:36:02.669Z,31.59
2023-05-10T11:39:03.575Z,31.23
2023-05-10T11:42:04.973Z,31.57
2023-05-10T11:45:05.618Z,31.92
2023-05-10T11:48:06.754Z,31.61
2023-05-10T11:51:07.586Z,32.04
2023-05-10T11:54:10.771Z,31.58
2023-05-10T11:57:11.581Z,31.48
2023-05-10T12:00:12.654Z,31.97
2023-05-10T12:03:14.723Z,31.84
2023-05-10T12:06:17.613Z,31.86
2023-05-10T12:09:35.389Z,32.04
2023-05-10T12:12:36.608Z,31.52
2023-05-10T12:15:38.597Z,31.76
2023-05-10T12:18:39.673Z,31.75
2023-05-10T12:21:42.616Z,31.97
2023-05-10T12:24:43.647Z,31.67
2023-05-10T12:27:46.617Z,31.43
2023-05-10T12:30:47.650Z,31.67
2023-05-10T12:33:52.625Z,32.01
2023-05-10T12:36:53.610Z,31.78
2023-05-10T12:39:55.582Z,31.86
2023-05-10T12:42:56.847Z,31.31
2023-05-10T12:45:57.619Z,31.79
2023-05-10T12:49:09.020Z,32.12
2023-05-10T12:52:10.620Z,31.84
2023-05-10T12:55:11.645Z,31.92
2023-05-10T12:58:17.963Z,31.97
2023-05-10T13:01:21.726Z,31.92
2023-05-10T13:04:22.682Z,31.84
2023-05-10T13:07:23.628Z,31.87
2023-05-10T13:10:24.604Z,31.71
2023-05-10T13:13:25.622Z,31.62
2023-05-10T13:16:26.574Z,31.65
2023-05-10T13:19:27.633Z,31.84
2023-05-10T13:22:39.182Z,32.02
2023-05-10T13:25:41.603Z,31.80
2023-05-10T13:28:42.555Z,32.05
2023-05-10T13:31:43.660Z,32.15
2023-05-10T13:34:44.555Z,31.94
2023-05-10T13:37:45.610Z,31.91
2023-05-10T13:40:46.575Z,32.19
2023-05-10T13:43:47.775Z,32.05
2023-05-10T13:46:48.661Z,31.98
2023-05-10T13:49:49.605Z,31.87
2023-05-10T13:52:51.566Z,32.08
2023-05-10T13:55:52.594Z,31.83
2023-05-10T13:58:53.566Z,32.02
2023-05-10T14:01:54.647Z,31.83
2023-05-10T14:04:55.568Z,31.82
2023-05-10T14:07:56.596Z,31.94
2023-05-10T14:10:58.573Z,31.88
2023-05-10T14:13:59.602Z,31.79
2023-05-10T14:17:00.524Z,31.94
2023-05-10T14:20:01.625Z,31.74
2023-05-10T14:23:02.560Z,31.66
2023-05-10T14:26:03.750Z,31.79
2023-05-10T14:29:04.560Z,31.86
2023-05-10T14:32:05.661Z,32.06
2023-05-10T14:35:07.733Z,32.12
2023-05-10T14:38:08.597Z,32.08
2023-05-10T14:41:11.718Z,32.17
2023-05-10T14:44:12.727Z,32.10
2023-05-10T14:47:13.552Z,31.89
2023-05-10T14:50:21.705Z,31.94
2023-05-10T14:53:32.550Z,31.75
2023-05-10T14:56:35.614Z,31.64
2023-05-10T14:59:36.560Z,31.70
2023-05-10T15:02:37.630Z,31.67
2023-05-10T15:05:38.557Z,31.95
2023-05-10T15:08:39.576Z,31.74
2023-05-10T15:11:40.553Z,31.69
2023-05-10T15:14:41.579Z,31.64
2023-05-10T15:17:42.601Z,31.88
2023-05-10T15:20:43.586Z,31.83
2023-05-10T15:23:44.557Z,31.37
2023-05-10T15:26:45.585Z,31.89
2023-05-10T15:29:46.570Z,31.57
2023-05-10T15:32:47.642Z,31.46
2023-05-10T15:35:48.570Z,31.54
2023-05-10T15:38:49.589Z,31.70
2023-05-10T15:41:50.531Z,31.58
2023-05-10T15:44:52.730Z,31.47
2023-05-10T15:47:53.654Z,31.69
2023-05-10T15:50:54.650Z,31.53
2023-05-10T15:54:06.305Z,31.56
2023-05-10T15:57:08.638Z,31.54
2023-05-10T16:00:11.638Z,31.70
2023-05-10T16:03:12.707Z,31.85
2023-05-10T16:06:13.626Z,31.84
2023-05-10T16:09:14.649Z,31.64
2023-05-10T16:12:15.641Z,31.55
2023-05-10T16:15:16.955Z,31.73
2023-05-10T16:18:17.708Z,31.87
2023-05-10T16:21:18.649Z,31.74
2023-05-10T16:24:19.598Z,31.65
2023-05-10T16:27:20.692Z,31.70
2023-05-10T16:30:23.607Z,31.70
2023-05-10T16:33:24.623Z,31.88
2023-05-10T16:36:25.607Z,31.83
2023-05-10T16:39:26.711Z,31.87
2023-05-10T16:42:27.621Z,31.71
2023-05-10T16:45:28.948Z,31.86
2023-05-10T16:48:29.616Z,31.90
2023-05-10T16:51:30.781Z,31.89
2023-05-10T16:54:31.606Z,31.83
2023-05-10T16:57:32.638Z,32.00
2023-05-10T17:00:33.618Z,31.95
2023-05-10T17:03:34.768Z,31.83
2023-05-10T17:06:35.611Z,31.75
2023-05-10T17:09:36.630Z,31.72
2023-05-10T17:12:37.588Z,32.30
2023-05-10T17:15:38.752Z,32.19
2023-05-10T17:18:39.629Z,31.98
2023-05-10T17:21:40.673Z,31.88
2023-05-10T17:24:41.600Z,31.84
2023-05-10T17:27:42.667Z,31.78
2023-05-10T17:30:43.628Z,31.88
2023-05-10T17:33:44.739Z,31.89
2023-05-10T17:36:45.619Z,31.70
2023-05-10T17:39:47.654Z,31.91
2023-05-10T17:42:48.593Z,31.91
2023-05-10T17:45:50.725Z,32.00
2023-05-10T17:48:51.606Z,31.81
2023-05-10T17:51:54.644Z,32.10
2023-05-10T17:54:55.633Z,32.01
2023-05-10T17:57:56.602Z,31.82
2023-05-10T18:00:57.669Z,31.75
2023-05-10T18:03:58.653Z,31.75
2023-05-10T18:07:01.901Z,31.87
2023-05-10T18:10:02.626Z,31.91
2023-05-10T18:13:05.838Z,31.92
2023-05-10T18:16:07.634Z,32.08
2023-05-10T18:19:08.744Z,31.92
2023-05-10T18:22:10.829Z,31.85
2023-05-10T18:25:11.586Z,31.88
2023-05-10T18:28:12.639Z,31.69
2023-05-10T18:31:13.727Z,31.82
2023-05-10T18:34:14.652Z,31.87
2023-05-10T18:37:16.558Z,31.70
2023-05-10T18:40:19.677Z,31.72
2023-05-10T18:43:20.562Z,31.82
2023-05-10T18:46:21.878Z,31.89
2023-05-10T18:49:22.619Z,31.87
2023-05-10T18:52:23.638Z,31.89
2023-05-10T18:55:24.692Z,31.83
2023-05-10T18:58:27.020Z,31.72
2023-05-10T19:01:27.610Z,31.72
2023-05-10T19:04:29.177Z,31.75
2023-05-10T19:07:30.598Z,31.82
2023-05-10T19:10:31.654Z,31.73
2023-05-10T19:13:34.701Z,31.90
2023-05-10T19:16:36.897Z,31.75
2023-05-10T19:19:37.744Z,31.71
2023-05-10T19:22:54.280Z,31.60
2023-05-10T19:26:00.311Z,31.75
2023-05-10T19:29:04.025Z,31.58
2023-05-10T19:32:04.586Z,31.48
2023-05-10T19:35:05.561Z,31.64
2023-05-10T19:38:06.616Z,31.68
2023-05-10T19:41:10.587Z,31.66
2023-05-10T19:44:11.576Z,31.74
2023-05-10T19:47:12.850Z,31.70
2023-05-10T19:50:13.558Z,31.70
2023-05-10T19:53:14.553Z,31.68
2023-05-10T19:56:18.528Z,31.61
2023-05-10T19:59:19.528Z,31.61
2023-05-10T20:02:20.509Z,31.70
2023-05-10T20:05:21.544Z,31.65
2023-05-10T20:08:22.508Z,31.58
2023-05-10T20:11:23.563Z,31.64
2023-05-10T20:14:24.511Z,31.63
2023-05-10T20:17:25.622Z,31.54
2023-05-10T20:20:27.491Z,31.60
2023-05-10T20:23:28.567Z,31.61
2023-05-10T20:26:29.508Z,31.70
2023-05-10T20:29:30.576Z,31.65
2023-05-10T20:32:31.527Z,31.87
2023-05-10T20:35:32.550Z,31.70
2023-05-10T20:38:33.523Z,31.69
2023-05-10T20:41:34.545Z,31.53
2023-05-10T20:44:35.509Z,31.53
2023-05-10T20:47:36.742Z,31.51
2023-05-10T20:50:37.516Z,31.67
2023-05-10T20:53:38.539Z,31.50
2023-05-10T20:56:40.539Z,31.63
2023-05-10T20:59:41.566Z,31.59
2023-05-10T21:02:42.513Z,31.47
2023-05-10T21:05:43.525Z,31.45
2023-05-10T21:08:44.526Z,31.51
2023-05-10T21:11:46.581Z,31.58
2023-05-10T21:14:47.520Z,31.74
2023-05-10T21:17:48.630Z,31.60
2023-05-10T21:20:49.524Z,31.54
2023-05-10T21:23:50.548Z,31.57
2023-05-10T21:26:51.530Z,31.40
2023-05-10T21:29:52.565Z,31.58
2023-05-10T21:32:53.529Z,31.54
2023-05-10T21:35:54.555Z,31.63
2023-05-10T21:38:56.479Z,31.56
2023-05-10T21:41:57.530Z,31.57
2023-05-10T21:44:58.494Z,31.60
2023-05-10T21:47:59.729Z,31.51
2023-05-10T21:51:00.487Z,31.63
2023-05-10T21:54:01.549Z,31.52
2023-05-10T21:57:02.474Z,31.58
2023-05-10T22:00:03.562Z,31.59
2023-05-10T22:03:05.612Z,31.60
2023-05-10T22:06:06.546Z,31.66
2023-05-10T22:09:07.470Z,31.56
2023-05-10T22:12:08.522Z,31.57
2023-05-10T22:15:10.751Z,31.59
2023-05-10T22:18:11.792Z,31.55
2023-05-10T22:21:12.518Z,31.50
2023-05-10T22:24:13.523Z,31.50
2023-05-10T22:27:14.486Z,31.58
2023-05-10T22:30:15.682Z,31.68
2023-05-10T22:33:16.506Z,31.66
2023-05-10T22:36:17.537Z,31.53
2023-05-10T22:39:18.487Z,31.61
2023-05-10T22:42:19.598Z,31.59
2023-05-10T22:45:20.508Z,31.61
2023-05-10T22:48:21.578Z,31.78
2023-05-10T22:51:22.490Z,31.74
2023-05-10T22:54:23.532Z,31.63
2023-05-10T22:57:24.529Z,31.52
2023-05-10T23:00:25.543Z,31.60
2023-05-10T23:03:26.488Z,31.63
2023-05-10T23:06:27.515Z,31.58
2023-05-10T23:09:28.472Z,31.62
2023-05-10T23:12:29.507Z,31.64
2023-05-10T23:15:30.479Z,31.69
2023-05-10T23:18:31.571Z,31.61
2023-05-10T23:21:32.448Z,31.51
2023-05-10T23:24:33.528Z,31.52
2023-05-10T23:27:34.495Z,31.43
2023-05-10T23:30:35.531Z,31.46
2023-05-10T23:33:36.475Z,31.47
2023-05-10T23:36:38.508Z,31.45
2023-05-10T23:39:39.492Z,31.54
2023-05-10T23:42:40.516Z,31.42
2023-05-10T23:45:41.574Z,31.40
2023-05-10T23:48:42.632Z,31.50
2023-05-10T23:51:43.476Z,31.39
2023-05-10T23:54:45.953Z,31.38
2023-05-10T23:57:46.522Z,31.47
